Time;durP1;ratioP1;P1;durP2;ratioP2;P2;SDS_P1;SDS_P2;PMS_P1;PMS_P2;Temp;Humidity;BMP_temperature;BMP_pressure;BME280_temperature;BME280_humidity;BME280_pressure;Samples;Min_cycle;Max_cycle;Signal;HPM_P1;HPM_P2
2023/06/12 05:18:32;;;;;;;;;;;;;;;15.62;85.76;99767.14;109285;1280;23258;-44
2023/06/12 05:21:00;;;;;;;;;;;;;;;15.60;86.18;99770.89;109461;1279;22574;-44
2023/06/12 05:23:28;;;;;;;;;;;;;;;15.59;86.36;99770.55;107939;1280;22523;-46
2023/06/12 05:25:55;;;;;;;;;;;;;;;15.56;86.54;99770.30;107140;1280;22516;-46
2023/06/12 05:28:25;;;;;;;;;;;;;;;15.54;86.71;99774.23;108348;1280;25445;-44
2023/06/12 05:30:52;;;;;;;;;;;;;;;15.51;86.32;99772.02;109852;1280;23154;-47
2023/06/12 05:33:20;;;;;;;;;;;;;;;15.44;86.22;99774.51;109878;1278;22440;-46
2023/06/12 05:35:49;;;;;;;;;;;;;;;15.37;86.47;99772.05;109933;1279;22385;-45
2023/06/12 05:38:17;;;;;;;;;;;;;;;15.29;86.99;99772.98;109983;1279;23163;-45
2023/06/12 05:40:44;;;;;;;;;;;;;;;15.19;87.73;99776.77;109895;1281;22421;-45
2023/06/12 05:43:13;;;;;;;;;;;;;;;15.12;88.54;99780.11;109843;1279;22428;-44
2023/06/12 05:45:41;;;;;;;;;;;;;;;15.10;89.07;99786.14;109371;1279;25198;-44
2023/06/12 05:48:09;;;;;;;;;;;;;;;15.11;89.59;99789.09;107855;1273;22483;-45
2023/06/12 05:50:36;;;;;;;;;;;;;;;15.11;89.69;99790.16;107312;1280;22523;-46
2023/06/12 05:53:08;;;;;;;;;;;;;;;15.06;89.47;99790.80;109999;1279;22434;-45
2023/06/12 05:55:37;;;;;;;;;;;;;;;15.02;89.66;99791.10;109099;1280;22553;-46
2023/06/12 05:58:04;;;;;;;;;;;;;;;15.00;89.64;99794.65;106772;1279;23351;-44
2023/06/12 06:00:35;;;;;;;;;;;;;;;14.98;89.67;99796.46;109972;1280;22431;-43
2023/06/12 06:03:04;;;;;;;;;;;;;;;14.97;90.13;99798.79;109461;1279;23123;-46
2023/06/12 06:05:33;;;;;;;;;;;;;;;14.98;90.32;99801.58;108333;1274;22504;-46
2023/06/12 06:08:10;;;;;;;;;;;;;;;14.98;90.39;99804.02;108656;1277;22507;-47
2023/06/12 06:10:41;;;;;;;;;;;;;;;14.98;91.10;99809.81;109381;1280;22507;-45
2023/06/12 06:13:08;;;;;;;;;;;;;;;14.98;91.29;99806.13;108467;1277;22508;-44
2023/06/12 06:15:36;;;;;;;;;;;;;;;14.96;91.17;99805.13;106852;1280;22571;-45
2023/06/12 06:18:04;;;;;;;;;;;;;;;14.93;91.43;99805.92;109788;1279;22478;-45
2023/06/12 06:20:33;;;;;;;;;;;;;;;14.91;91.94;99804.55;109911;1280;22445;-46
2023/06/12 06:23:01;;;;;;;;;;;;;;;14.91;91.86;99799.65;109422;1279;23287;-47
2023/06/12 06:25:29;;;;;;;;;;;;;;;14.91;91.92;99800.16;109980;1279;22690;-47
2023/06/12 06:27:57;;;;;;;;;;;;;;;14.92;92.22;99803.48;109919;1279;22429;-48
2023/06/12 06:30:24;;;;;;;;;;;;;;;14.90;92.42;99801.23;108486;1280;22493;-47
2023/06/12 06:32:52;;;;;;;;;;;;;;;14.89;93.07;99800.55;109538;1275;22518;-44
2023/06/12 06:35:21;;;;;;;;;;;;;;;14.92;93.88;99804.34;109905;1272;22449;-44
2023/06/12 06:37:48;;;;;;;;;;;;;;;14.96;94.21;99807.77;109942;1273;22456;-44
2023/06/12 06:40:17;;;;;;;;;;;;;;;14.92;94.41;99812.77;108927;1275;26548;-46
2023/06/12 06:42:46;;;;;;;;;;;;;;;14.91;95.16;99815.09;108647;1279;22498;-46
2023/06/12 06:45:20;;;;;;;;;;;;;;;14.92;96.04;99813.65;109864;1279;22445;-44
2023/06/12 06:47:49;;;;;;;;;;;;;;;14.93;96.10;99814.50;109661;1273;23305;-48
2023/06/12 06:50:18;;;;;;;;;;;;;;;14.93;96.71;99812.05;108519;1279;22514;-48
2023/06/12 06:52:47;;;;;;;;;;;;;;;14.93;96.61;99813.98;108087;1278;24026;-47
2023/06/12 06:55:18;;;;;;;;;;;;;;;14.93;96.15;99815.73;108556;1278;25881;-47
2023/06/12 06:57:50;;;;;;;;;;;;;;;14.91;95.51;99818.07;107747;1277;22593;-47
2023/06/12 07:00:20;;;;;;;;;;;;;;;14.89;95.28;99818.12;109156;1279;22509;-46
2023/06/12 07:02:48;;;;;;;;;;;;;;;14.84;94.96;99816.50;109336;1275;23477;-45
2023/06/12 07:05:20;;;;;;;;;;;;;;;14.78;95.25;99816.27;109572;1279;22497;-45
2023/06/12 07:07:52;;;;;;;;;;;;;;;14.75;95.57;99819.16;109734;1277;23225;-47
2023/06/12 07:10:31;;;;;;;;;;;;;;;14.76;95.92;99818.96;109669;1280;22522;-47
2023/06/12 07:13:00;;;;;;;;;;;;;;;14.82;95.76;99822.15;109177;1275;22533;-42
2023/06/12 07:15:43;;;;;;;;;;;;;;;14.86;94.38;99821.17;108193;1280;22533;-44
2023/06/12 07:18:14;;;;;;;;;;;;;;;14.86;93.46;99819.95;107726;1274;23401;-43
2023/06/12 07:20:44;;;;;;;;;;;;;;;14.89;92.75;99820.39;108115;1277;23231;-44
2023/06/12 07:23:12;;;;;;;;;;;;;;;14.92;92.60;99821.40;109868;1277;22447;-44
2023/06/12 07:25:39;;;;;;;;;;;;;;;14.97;92.65;99824.43;109846;1280;22938;-42
2023/06/12 07:28:07;;;;;;;;;;;;;;;14.98;92.39;99821.95;109913;1278;23345;-42
2023/06/12 07:30:35;;;;;;;;;;;;;;;14.98;92.25;99822.13;109375;1279;22501;-43
2023/06/12 07:33:04;;;;;;;;;;;;;;;15.01;92.07;99817.84;108492;1279;22639;-44
2023/06/12 07:35:31;;;;;;;;;;;;;;;15.05;91.56;99820.86;108680;1279;24273;-43
2023/06/12 07:38:02;;;;;;;;;;;;;;;15.09;91.16;99824.81;109900;1279;22449;-43
2023/06/12 07:40:30;;;;;;;;;;;;;;;15.15;90.94;99829.92;107901;1274;23189;-42
2023/06/12 07:42:58;;;;;;;;;;;;;;;15.17;90.51;99825.66;108365;1279;23003;-43
2023/06/12 07:45:26;;;;;;;;;;;;;;;15.20;90.29;99825.61;108865;1272;22591;-43
2023/06/12 07:47:55;;;;;;;;;;;;;;;15.21;90.20;99828.03;109861;1279;22430;-45
2023/06/12 07:50:24;;;;;;;;;;;;;;;15.24;90.38;99830.92;109644;1280;22539;-43
2023/06/12 07:52:52;;;;;;;;;;;;;;;15.26;90.44;99833.15;109861;1280;22503;-43
2023/06/12 07:55:21;;;;;;;;;;;;;;;15.28;90.47;99838.73;108308;1280;22515;-42
2023/06/12 07:57:50;;;;;;;;;;;;;;;15.29;90.07;99835.67;108142;1273;22501;-44
2023/06/12 08:00:20;;;;;;;;;;;;;;;15.32;89.74;99838.27;109082;1279;22494;-44
2023/06/12 08:02:57;;;;;;;;;;;;;;;15.34;89.66;99834.34;109412;1279;25201;-44
2023/06/12 08:05:37;;;;;;;;;;;;;;;15.35;89.41;99839.77;108046;1279;22504;-42
2023/06/12 08:08:10;;;;;;;;;;;;;;;15.34;89.63;99840.49;109191;1275;24190;-43
2023/06/12 08:10:38;;;;;;;;;;;;;;;15.33;89.76;99838.59;109867;1274;23055;-43
2023/06/12 08:13:06;;;;;;;;;;;;;;;15.34;89.71;99842.62;108634;1277;22595;-47
2023/06/12 08:15:35;;;;;;;;;;;;;;;15.35;89.78;99842.92;109835;1274;22437;-44
2023/06/12 08:18:05;;;;;;;;;;;;;;;15.36;89.69;99843.08;109241;1273;24253;-48
2023/06/12 08:20:33;;;;;;;;;;;;;;;15.39;90.10;99845.99;109007;1279;22603;-46
2023/06/12 08:23:02;;;;;;;;;;;;;;;15.33;90.60;99848.61;109904;1273;22432;-46
2023/06/12 08:25:30;;;;;;;;;;;;;;;15.27;91.22;99848.94;108943;1273;23331;-48
2023/06/12 08:28:01;;;;;;;;;;;;;;;15.27;91.74;99851.94;109516;1275;23164;-47
2023/06/12 08:30:29;;;;;;;;;;;;;;;15.26;91.69;99850.39;109484;1278;23190;-46
2023/06/12 08:32:57;;;;;;;;;;;;;;;15.25;91.78;99850.05;109952;1276;22474;-46
2023/06/12 08:35:24;;;;;;;;;;;;;;;15.26;91.97;99847.56;109702;1279;22636;-46
2023/06/12 08:37:54;;;;;;;;;;;;;;;15.26;92.31;99844.23;109227;1272;22486;-48
2023/06/12 08:40:22;;;;;;;;;;;;;;;15.27;92.32;99843.48;109902;1275;23169;-47
2023/06/12 08:42:52;;;;;;;;;;;;;;;15.25;92.16;99843.55;109894;1275;23117;-47
2023/06/12 08:45:20;;;;;;;;;;;;;;;15.21;92.21;99845.41;109925;1273;22429;-48
2023/06/12 08:47:49;;;;;;;;;;;;;;;15.17;92.51;99844.64;109910;1278;22443;-48
2023/06/12 08:50:17;;;;;;;;;;;;;;;15.15;92.44;99845.73;109925;1272;22435;-46
2023/06/12 08:52:45;;;;;;;;;;;;;;;15.13;92.57;99843.85;109942;1278;22887;-46
2023/06/12 08:55:13;;;;;;;;;;;;;;;15.14;92.58;99845.40;109125;1275;25246;-46
2023/06/12 08:57:43;;;;;;;;;;;;;;;15.18;92.61;99849.69;109788;1273;22478;-46
2023/06/12 09:00:13;;;;;;;;;;;;;;;15.22;92.62;99844.85;108011;1275;25197;-47
2023/06/12 09:02:47;;;;;;;;;;;;;;;15.25;92.86;99844.05;109242;1280;22515;-46
2023/06/12 09:05:23;;;;;;;;;;;;;;;15.29;92.51;99849.05;108475;1278;22491;-47
2023/06/12 09:07:51;;;;;;;;;;;;;;;15.29;92.38;99844.48;107482;1279;24420;-46
2023/06/12 09:10:19;;;;;;;;;;;;;;;15.32;92.57;99846.88;107812;1275;22517;-47
2023/06/12 09:12:46;;;;;;;;;;;;;;;15.36;92.02;99844.30;107728;1279;22536;-47
2023/06/12 09:15:17;;;;;;;;;;;;;;;15.38;91.51;99843.73;108490;1280;23838;-47
2023/06/12 09:17:46;;;;;;;;;;;;;;;15.37;91.45;99845.52;107633;1279;23851;-48
2023/06/12 09:20:21;;;;;;;;;;;;;;;15.38;90.94;99847.23;107754;1275;22826;-47
2023/06/12 09:23:10;;;;;;;;;;;;;;;15.38;91.03;99843.56;107600;1279;22514;-43
2023/06/12 09:25:39;;;;;;;;;;;;;;;15.41;91.21;99846.10;109941;1275;22429;-43
2023/06/12 09:28:09;;;;;;;;;;;;;;;15.46;90.90;99847.00;109951;1278;22439;-43
2023/06/12 09:30:40;;;;;;;;;;;;;;;15.47;90.48;99845.93;109919;1277;22498;-43
2023/06/12 09:33:08;;;;;;;;;;;;;;;15.42;90.56;99845.03;109812;1275;22506;-44
2023/06/12 09:35:49;;;;;;;;;;;;;;;15.37;91.07;99844.63;107983;1276;22530;-43
2023/06/12 09:38:16;;;;;;;;;;;;;;;15.33;90.82;99843.14;108186;1275;22554;-44
2023/06/12 09:40:45;;;;;;;;;;;;;;;15.27;91.13;99842.25;107564;1272;22479;-42
2023/06/12 09:43:16;;;;;;;;;;;;;;;15.26;91.34;99838.96;109859;1279;22492;-43
2023/06/12 09:45:47;;;;;;;;;;;;;;;15.26;91.69;99837.91;109553;1275;22575;-44
2023/06/12 09:48:16;;;;;;;;;;;;;;;15.27;92.15;99834.90;108238;1275;22517;-43
2023/06/12 09:50:45;;;;;;;;;;;;;;;15.28;92.18;99838.19;108165;1279;22497;-43
2023/06/12 09:53:12;;;;;;;;;;;;;;;15.25;92.07;99834.75;109897;1274;22521;-43
2023/06/12 09:55:40;;;;;;;;;;;;;;;15.25;92.57;99835.11;108550;1276;23883;-43
2023/06/12 09:58:12;;;;;;;;;;;;;;;15.26;92.79;99836.85;108609;1273;22516;-43
2023/06/12 10:00:40;;;;;;;;;;;;;;;15.22;92.87;99833.79;108329;1279;24274;-43
2023/06/12 10:03:09;;;;;;;;;;;;;;;15.21;92.97;99834.16;107137;1279;25249;-43
2023/06/12 10:05:38;;;;;;;;;;;;;;;15.27;93.32;99836.10;108183;1273;22563;-44
2023/06/12 10:08:06;;;;;;;;;;;;;;;15.35;93.17;99836.23;107535;1278;22520;-43
2023/06/12 10:10:33;;;;;;;;;;;;;;;15.42;92.84;99836.92;108343;1277;23278;-45
2023/06/12 10:13:01;;;;;;;;;;;;;;;15.44;91.88;99842.68;108597;1273;22523;-43
2023/06/12 10:15:29;;;;;;;;;;;;;;;15.40;91.29;99843.82;108905;1279;22489;-44
2023/06/12 10:17:57;;;;;;;;;;;;;;;15.43;90.93;99842.71;108736;1279;22581;-44
2023/06/12 10:20:25;;;;;;;;;;;;;;;15.52;90.53;99841.77;108849;1280;22519;-45
2023/06/12 10:22:56;;;;;;;;;;;;;;;15.62;90.08;99844.13;107585;1279;24207;-43
2023/06/12 10:25:23;;;;;;;;;;;;;;;15.67;89.77;99844.17;108555;1280;22517;-43
2023/06/12 10:27:53;;;;;;;;;;;;;;;15.59;89.74;99840.87;109491;1278;22520;-43
2023/06/12 10:30:21;;;;;;;;;;;;;;;15.45;90.53;99843.17;109312;1278;23280;-42
2023/06/12 10:32:48;;;;;;;;;;;;;;;15.32;91.54;99842.99;109607;1279;22513;-43
2023/06/12 10:35:28;;;;;;;;;;;;;;;15.28;92.28;99847.68;109912;1280;22444;-44
2023/06/12 10:37:56;;;;;;;;;;;;;;;15.27;92.25;99849.65;109861;1280;22990;-44
2023/06/12 10:40:23;;;;;;;;;;;;;;;15.30;92.45;99854.11;109179;1274;22568;-43
2023/06/12 10:43:11;;;;;;;;;;;;;;;15.36;92.02;99849.57;109753;1273;22522;-45
2023/06/12 10:45:39;;;;;;;;;;;;;;;15.37;91.34;99851.13;107095;1280;22471;-45
2023/06/12 10:48:06;;;;;;;;;;;;;;;15.38;91.06;99850.73;109841;1278;22494;-47
2023/06/12 10:50:36;;;;;;;;;;;;;;;15.36;90.85;99847.82;109847;1280;22428;-47
2023/06/12 10:53:04;;;;;;;;;;;;;;;15.35;90.60;99851.19;109899;1275;23315;-47
2023/06/12 10:55:38;;;;;;;;;;;;;;;15.36;90.49;99850.61;109774;1275;22471;-47
2023/06/12 10:58:06;;;;;;;;;;;;;;;15.39;90.40;99848.45;109498;1273;22504;-46
2023/06/12 11:00:37;;;;;;;;;;;;;;;15.46;90.07;99846.33;108473;1275;22634;-47
2023/06/12 11:03:06;;;;;;;;;;;;;;;15.49;89.62;99850.13;107867;1279;23179;-48
2023/06/12 11:05:34;;;;;;;;;;;;;;;15.52;89.48;99847.91;109884;1278;22438;-46
2023/06/12 11:08:02;;;;;;;;;;;;;;;15.54;89.09;99847.33;109872;1262;22905;-46
2023/06/12 11:10:30;;;;;;;;;;;;;;;15.56;88.95;99843.94;108889;1276;22607;-47
2023/06/12 11:12:58;;;;;;;;;;;;;;;15.59;88.82;99844.91;108848;1279;23320;-49
2023/06/12 11:15:25;;;;;;;;;;;;;;;15.61;89.22;99845.21;109657;1275;23436;-49
2023/06/12 11:17:53;;;;;;;;;;;;;;;15.61;90.43;99849.61;108679;1279;25303;-49
2023/06/12 11:20:22;;;;;;;;;;;;;;;15.57;91.36;99850.23;108022;1280;22506;-48
2023/06/12 11:22:57;;;;;;;;;;;;;;;15.55;91.30;99847.48;107562;1274;22524;-47
2023/06/12 11:25:25;;;;;;;;;;;;;;;15.54;91.28;99848.73;109904;1280;24220;-47
2023/06/12 11:27:53;;;;;;;;;;;;;;;15.60;91.66;99848.41;109841;1277;23187;-47
2023/06/12 11:30:21;;;;;;;;;;;;;;;15.64;91.30;99842.86;109881;1280;22770;-47
2023/06/12 11:33:05;;;;;;;;;;;;;;;15.68;90.84;99843.29;109808;1276;22450;-47
2023/06/12 11:35:32;;;;;;;;;;;;;;;15.77;90.59;99841.10;109409;1278;23273;-46
2023/06/12 11:38:01;;;;;;;;;;;;;;;15.87;90.25;99842.38;108190;1279;25533;-46
2023/06/12 11:40:31;;;;;;;;;;;;;;;15.90;89.44;99841.45;107159;1279;199136;-46
2023/06/12 11:42:59;;;;;;;;;;;;;;;15.87;89.44;99840.09;109222;1275;23674;-47
2023/06/12 11:45:29;;;;;;;;;;;;;;;15.79;88.85;99840.86;109615;1281;22504;-48
2023/06/12 11:47:56;;;;;;;;;;;;;;;15.63;89.21;99837.44;109867;1273;22974;-47
2023/06/12 11:50:27;;;;;;;;;;;;;;;15.53;89.77;99839.80;107944;1280;22521;-44
2023/06/12 11:52:55;;;;;;;;;;;;;;;15.44;90.31;99837.58;108547;1278;23019;-47
2023/06/12 11:55:23;;;;;;;;;;;;;;;15.43;91.10;99840.08;109542;1275;23140;-47
2023/06/12 11:57:53;;;;;;;;;;;;;;;15.49;91.36;99840.43;109832;1279;22907;-45
2023/06/12 12:00:21;;;;;;;;;;;;;;;15.53;90.83;99841.57;109209;1275;22509;-43
2023/06/12 12:02:51;;;;;;;;;;;;;;;15.53;90.51;99842.42;109573;1278;22519;-46
2023/06/12 12:05:20;;;;;;;;;;;;;;;15.56;89.88;99846.77;109913;1280;22427;-44
2023/06/12 12:07:57;;;;;;;;;;;;;;;15.59;89.99;99846.48;109955;1279;22416;-44
2023/06/12 12:10:25;;;;;;;;;;;;;;;15.65;90.01;99845.99;109844;1275;22880;-43
2023/06/12 12:12:59;;;;;;;;;;;;;;;15.66;89.73;99844.06;109850;1280;22432;-47
2023/06/12 12:15:28;;;;;;;;;;;;;;;15.64;89.72;99845.84;109463;1280;22513;-50
2023/06/12 12:17:55;;;;;;;;;;;;;;;15.67;90.04;99843.66;108277;1280;22520;-43
2023/06/12 12:20:23;;;;;;;;;;;;;;;15.74;90.14;99843.13;109760;1280;22531;-44
2023/06/12 12:22:55;;;;;;;;;;;;;;;15.80;90.01;99845.41;107404;1279;24317;-48
2023/06/12 12:25:25;;;;;;;;;;;;;;;15.84;89.60;99845.27;108805;1280;22628;-48
2023/06/12 12:27:53;;;;;;;;;;;;;;;15.84;89.16;99843.88;108147;1280;22592;-46
2023/06/12 12:30:21;;;;;;;;;;;;;;;15.82;88.87;99840.59;109321;1280;22619;-43
2023/06/12 12:32:49;;;;;;;;;;;;;;;15.82;88.80;99844.98;109093;1280;22631;-44
2023/06/12 12:35:17;;;;;;;;;;;;;;;15.84;88.89;99844.61;107078;1281;25262;-48
2023/06/12 12:37:44;;;;;;;;;;;;;;;15.80;89.09;99847.16;107152;1280;23341;-44
2023/06/12 12:40:13;;;;;;;;;;;;;;;15.75;89.27;99849.80;109768;1280;22567;-45
2023/06/12 12:42:42;;;;;;;;;;;;;;;15.71;89.38;99853.74;109701;1280;22482;-42
2023/06/12 12:45:10;;;;;;;;;;;;;;;15.66;89.66;99852.83;108901;1281;22585;-46
2023/06/12 12:47:40;;;;;;;;;;;;;;;15.60;90.09;99852.78;108334;1281;22691;-46
2023/06/12 12:50:08;;;;;;;;;;;;;;;15.57;90.49;99850.23;109391;1279;22541;-43
2023/06/12 12:52:47;;;;;;;;;;;;;;;15.56;90.92;99846.93;109286;1279;22574;-48
2023/06/12 12:55:17;;;;;;;;;;;;;;;15.59;91.13;99852.13;108646;1280;22589;-42
2023/06/12 12:57:44;;;;;;;;;;;;;;;15.59;91.25;99850.89;106966;1281;22464;-45
2023/06/12 13:00:17;;;;;;;;;;;;;;;15.57;91.08;99850.05;107066;1280;22958;-42
2023/06/12 13:02:46;;;;;;;;;;;;;;;15.57;91.53;99853.05;108424;1280;23199;-44
2023/06/12 13:05:14;;;;;;;;;;;;;;;15.53;91.85;99850.34;109905;1281;22749;-44
2023/06/12 13:07:42;;;;;;;;;;;;;;;15.52;92.41;99850.90;108112;1280;22503;-46
2023/06/12 13:10:10;;;;;;;;;;;;;;;15.49;92.59;99853.27;108278;1280;22554;-43
2023/06/12 13:12:39;;;;;;;;;;;;;;;15.42;93.03;99854.15;107909;1281;25355;-42
2023/06/12 13:15:09;;;;;;;;;;;;;;;15.38;93.54;99856.02;108198;1280;25246;-48
2023/06/12 13:17:37;;;;;;;;;;;;;;;15.37;94.10;99853.77;107464;1280;25352;-47
2023/06/12 13:20:05;;;;;;;;;;;;;;;15.33;94.57;99857.73;107010;1280;22513;-47
2023/06/12 13:22:33;;;;;;;;;;;;;;;15.30;94.97;99853.93;106754;1280;25541;-47
2023/06/12 13:25:00;;;;;;;;;;;;;;;15.34;95.27;99854.21;106939;1279;22508;-44
2023/06/12 13:27:28;;;;;;;;;;;;;;;15.36;94.77;99851.67;107255;1281;22505;-43
2023/06/12 13:29:56;;;;;;;;;;;;;;;15.38;94.87;99852.86;106949;1279;22515;-47
2023/06/12 13:32:23;;;;;;;;;;;;;;;15.41;95.02;99855.41;107265;1281;24184;-46
2023/06/12 13:34:50;;;;;;;;;;;;;;;15.45;94.53;99858.83;106745;1279;22530;-47
2023/06/12 13:37:18;;;;;;;;;;;;;;;15.49;94.17;99855.21;107720;1277;24329;-46
2023/06/12 13:39:45;;;;;;;;;;;;;;;15.53;94.14;99860.36;106694;1280;22507;-42
2023/06/12 13:42:13;;;;;;;;;;;;;;;15.56;94.28;99854.14;106888;1281;22505;-44
2023/06/12 13:44:40;;;;;;;;;;;;;;;15.53;94.48;99850.15;106990;1280;22525;-46
2023/06/12 13:47:08;;;;;;;;;;;;;;;15.51;94.96;99848.81;107390;1279;22542;-46
2023/06/12 13:49:36;;;;;;;;;;;;;;;15.53;95.27;99848.59;107262;1281;22509;-47
2023/06/12 13:52:04;;;;;;;;;;;;;;;15.51;95.66;99849.36;106943;1279;22518;-44
2023/06/12 13:54:31;;;;;;;;;;;;;;;15.45;96.33;99851.27;107123;1280;22515;-44
2023/06/12 13:57:00;;;;;;;;;;;;;;;15.40;97.27;99854.36;106650;1279;24228;-49
2023/06/12 13:59:27;;;;;;;;;;;;;;;15.39;98.36;99855.30;106460;1281;24225;-42
2023/06/12 14:01:55;;;;;;;;;;;;;;;15.37;99.20;99852.19;106772;1279;25219;-47
2023/06/12 14:04:22;;;;;;;;;;;;;;;15.37;99.93;99854.48;106936;1281;25220;-46
2023/06/12 14:06:52;;;;;;;;;;;;;;;15.34;100.00;99849.27;106683;1279;24750;-46
2023/06/12 14:09:19;;;;;;;;;;;;;;;15.30;100.00;99848.49;106789;1281;22527;-43
2023/06/12 14:11:47;;;;;;;;;;;;;;;15.23;100.00;99848.70;106908;1279;25459;-48
2023/06/12 14:14:15;;;;;;;;;;;;;;;15.16;100.00;99852.02;106527;1279;22513;-44
2023/06/12 14:16:42;;;;;;;;;;;;;;;15.12;100.00;99854.05;106655;1281;25268;-45
2023/06/12 14:19:10;;;;;;;;;;;;;;;15.12;100.00;99855.48;107267;1281;23211;-48
2023/06/12 14:21:37;;;;;;;;;;;;;;;15.12;100.00;99856.15;106720;1280;22508;-47
2023/06/12 14:24:05;;;;;;;;;;;;;;;15.14;100.00;99857.70;107055;1279;22522;-45
